A05 weather

Harrismith Airport
Harrismith, Western Australia, Australia

Public forecast

Using degrees Celsius for public forecast. Weather courtesy of forecast.io.

Closest aviation weather report (METAR) to Harrismith Airport

Closest report is Perth Jandakot Airport, 112.5 nm (208.4 km) WNW. Retrieved 2019/11/13 16:30 UTC (0 seconds ago):

YPJT 131630Z AUTO 17007KT 9999 // NCD 21/11 Q1016 RF000/0000

Closest aviation forecast (TAF) to Harrismith Airport

Closest forecast is Perth Jandakot Airport, 112.5 nm (208.4 km) WNW. Retrieved 2019/11/13 12:00 UTC (4 hours ago):

TAF YPJT 131103Z 1312/1406 18011KT CAVOK FM131800 11010KT CAVOK BECMG 1403/1404 22013KT CAVOK